Time;durP1;ratioP1;P1;durP2;ratioP2;P2;SDS_P1;SDS_P2;PMS_P1;PMS_P2;Temp;Humidity;BMP_temperature;BMP_pressure;BME280_temperature;BME280_humidity;BME280_pressure;Samples;Min_cycle;Max_cycle;Signal;HPM_P1;HPM_P2
2023/01/09 00:01:15;;;;;;;12.82;7.32;;;19.70;58.20;;;;;;5031440;28;20074;-74
2023/01/09 00:03:41;;;;;;;12.55;6.32;;;19.70;58.40;;;;;;5049324;28;20032;-73
2023/01/09 00:06:07;;;;;;;30.92;7.07;;;19.80;58.60;;;;;;5049255;28;20325;-73
2023/01/09 00:08:33;;;;;;;20.92;7.57;;;19.90;58.70;;;;;;5047755;28;20496;-73
2023/01/09 00:10:59;;;;;;;24.20;7.82;;;19.90;58.50;;;;;;5049053;28;20103;-74
2023/01/09 00:13:25;;;;;;;17.92;7.93;;;19.90;58.20;;;;;;5049015;28;20087;-73
2023/01/09 00:15:50;;;;;;;26.15;8.50;;;19.90;58.40;;;;;;5049430;28;20079;-73
2023/01/09 00:18:16;;;;;;;19.85;7.75;;;19.90;58.20;;;;;;5048669;28;20033;-73
2023/01/09 00:20:42;;;;;;;18.70;8.05;;;19.90;58.20;;;;;;5053711;22;20049;-73
2023/01/09 00:23:07;;;;;;;21.30;7.90;;;19.90;58.20;;;;;;5028419;28;20026;-72
2023/01/09 00:25:34;;;;;;;12.80;7.53;;;19.90;58.30;;;;;;5028047;28;20037;-72
2023/01/09 00:28:00;;;;;;;14.30;7.88;;;19.80;58.40;;;;;;5027970;28;20034;-72
2023/01/09 00:30:26;;;;;;;15.60;7.50;;;19.80;58.50;;;;;;5028687;28;20025;-72
2023/01/09 00:32:53;;;;;;;17.27;7.93;;;19.80;58.50;;;;;;5027925;28;20064;-73
2023/01/09 00:35:21;;;;;;;17.95;7.70;;;19.80;58.40;;;;;;5029445;28;20025;-72
2023/01/09 00:37:46;;;;;;;13.65;6.97;;;19.80;58.40;;;;;;5029015;28;20034;-73
2023/01/09 00:40:14;;;;;;;15.48;7.63;;;19.80;58.80;;;;;;5028551;28;20084;-73
2023/01/09 00:42:41;;;;;;;14.20;7.80;;;19.80;58.80;;;;;;5030977;28;20029;-73
2023/01/09 00:45:13;;;;;;;15.93;7.30;;;19.80;59.00;;;;;;5031231;28;20025;-72
2023/01/09 00:47:43;;;;;;;17.15;7.57;;;19.90;58.80;;;;;;5031191;28;20033;-78
2023/01/09 00:50:17;;;;;;;;;;;19.90;58.70;;;;;;5030365;28;20017;-79
2023/01/09 00:52:45;;;;;;;22.88;13.90;;;19.70;55.10;;;;;;5013355;28;20262;-72
2023/01/09 00:55:12;;;;;;;20.35;13.13;;;19.60;52.90;;;;;;5029802;28;20448;-72
2023/01/09 00:57:39;;;;;;;33.25;12.35;;;19.50;53.30;;;;;;5031009;28;20397;-72
2023/01/09 01:00:06;;;;;;;29.45;11.30;;;19.60;54.30;;;;;;5031091;28;20025;-72
2023/01/09 01:02:31;;;;;;;22.60;10.80;;;19.60;54.80;;;;;;5030710;28;20424;-72
2023/01/09 01:07:43;;;;;;;22.83;11.25;;;19.70;55.30;;;;;;5034689;28;20076;-72
2023/01/09 01:10:12;;;;;;;21.52;10.93;;;19.70;55.50;;;;;;5034625;28;20037;-72
2023/01/09 01:12:39;;;;;;;17.00;10.70;;;19.70;55.60;;;;;;5034265;28;20025;-72
2023/01/09 01:15:06;;;;;;;17.33;9.95;;;19.70;55.60;;;;;;5033425;28;20033;-72
2023/01/09 01:17:37;;;;;;;19.40;10.02;;;19.70;56.40;;;;;;5034575;28;20263;-72
2023/01/09 01:20:05;;;;;;;15.43;9.73;;;19.80;55.90;;;;;;5034274;28;20033;-72
2023/01/09 01:22:31;;;;;;;21.05;10.10;;;19.70;55.90;;;;;;5032609;28;20477;-72
2023/01/09 01:24:57;;;;;;;14.90;9.75;;;19.70;56.00;;;;;;5034253;28;20021;-72
2023/01/09 01:27:22;;;;;;;16.95;9.63;;;19.80;56.70;;;;;;5034183;28;20393;-72
2023/01/09 01:29:48;;;;;;;17.95;9.68;;;19.70;56.10;;;;;;5032782;28;20064;-72
2023/01/09 01:32:14;;;;;;;18.80;9.55;;;19.80;56.20;;;;;;5033909;28;20028;-72
2023/01/09 01:34:40;;;;;;;16.80;9.52;;;19.70;56.20;;;;;;5032863;28;20095;-72
2023/01/09 01:37:06;;;;;;;13.75;8.65;;;19.70;56.20;;;;;;5034034;28;20061;-72
2023/01/09 01:39:32;;;;;;;14.68;9.60;;;19.80;56.30;;;;;;5034106;28;20392;-72
2023/01/09 01:41:57;;;;;;;14.70;9.48;;;19.80;56.30;;;;;;5032723;28;20468;-72
2023/01/09 01:45:03;;;;;;;15.85;9.00;;;19.80;56.40;;;;;;5032814;28;20029;-72
2023/01/09 01:47:40;;;;;;;17.42;8.80;;;19.70;56.30;;;;;;5033948;28;20026;-72
2023/01/09 01:50:47;;;;;;;17.38;9.73;;;19.80;56.40;;;;;;5033921;28;20030;-72
2023/01/09 01:53:21;;;;;;;17.33;9.45;;;19.70;56.30;;;;;;5012587;28;20034;-73
2023/01/09 01:56:26;;;;;;;16.65;9.13;;;19.70;56.60;;;;;;5020554;28;20129;-72
2023/01/09 01:59:10;;;;;;;18.67;9.13;;;19.80;56.70;;;;;;4975347;28;20072;-72
2023/01/09 02:01:39;;;;;;;15.57;9.00;;;19.70;56.70;;;;;;4989820;28;20219;-72
2023/01/09 02:04:06;;;;;;;15.95;9.27;;;19.80;56.70;;;;;;5010437;28;20029;-72
2023/01/09 02:06:33;;;;;;;13.52;8.18;;;19.70;56.70;;;;;;5022552;28;20026;-72
2023/01/09 02:09:01;;;;;;;15.55;8.80;;;19.70;56.70;;;;;;5022191;28;20492;-72
2023/01/09 02:11:28;;;;;;;17.65;8.57;;;19.80;56.70;;;;;;5023393;28;20440;-72
2023/01/09 02:13:54;;;;;;;16.02;8.40;;;19.70;56.70;;;;;;5023802;28;20034;-72
2023/01/09 02:16:46;;;;;;;14.27;8.18;;;19.70;56.70;;;;;;5022108;28;20033;-72
2023/01/09 02:19:27;;;;;;;17.45;8.52;;;19.70;56.70;;;;;;5023899;28;20384;-72
2023/01/09 02:22:26;;;;;;;19.23;8.13;;;19.80;56.80;;;;;;5023102;28;20042;-72
2023/01/09 02:25:03;;;;;;;13.60;8.37;;;19.70;56.70;;;;;;5023323;28;20492;-72
2023/01/09 02:27:49;;;;;;;13.38;8.40;;;19.70;56.80;;;;;;5022937;28;20021;-71
2023/01/09 02:30:30;;;;;;;14.38;8.10;;;19.80;56.80;;;;;;5023760;28;20068;-71
2023/01/09 02:33:12;;;;;;;14.60;7.70;;;19.80;56.80;;;;;;5023482;28;20022;-72
2023/01/09 02:35:59;;;;;;;16.58;8.32;;;19.80;56.90;;;;;;5024208;28;20033;-72
2023/01/09 02:38:34;;;;;;;15.40;8.13;;;19.70;56.80;;;;;;5023422;28;20397;-72
2023/01/09 02:41:35;;;;;;;13.43;8.07;;;19.80;56.80;;;;;;5023605;28;20084;-72
2023/01/09 02:44:24;;;;;;;13.35;8.38;;;19.70;56.80;;;;;;5024140;28;20018;-72
2023/01/09 02:47:26;;;;;;;13.75;7.70;;;19.70;56.80;;;;;;5022698;28;20026;-72
2023/01/09 02:49:56;;;;;;;27.08;9.00;;;19.70;56.80;;;;;;5019291;28;20499;-72
2023/01/09 02:52:51;;;;;;;17.70;8.18;;;19.70;56.80;;;;;;5038528;28;20025;-72
2023/01/09 02:55:26;;;;;;;14.00;8.02;;;19.70;56.80;;;;;;5021419;28;20034;-72
2023/01/09 02:58:08;;;;;;;15.55;8.68;;;19.70;56.90;;;;;;5022066;28;20034;-72
2023/01/09 03:00:52;;;;;;;12.75;7.85;;;19.70;56.90;;;;;;5021512;28;20497;-72
2023/01/09 03:03:37;;;;;;;12.93;8.13;;;19.70;56.90;;;;;;5022924;28;20025;-72
2023/01/09 03:06:14;;;;;;;12.02;7.63;;;19.70;56.80;;;;;;5032227;28;20490;-71
2023/01/09 03:08:49;;;;;;;13.25;7.88;;;19.80;56.90;;;;;;5032605;28;20091;-72
2023/01/09 03:11:15;;;;;;;12.73;7.80;;;19.70;56.80;;;;;;5031174;28;20397;-72
2023/01/09 03:13:57;;;;;;;13.57;7.93;;;19.70;56.90;;;;;;5032097;28;20029;-72
2023/01/09 03:16:31;;;;;;;12.30;7.65;;;19.70;56.90;;;;;;5032451;28;20033;-72
2023/01/09 03:18:58;;;;;;;13.20;8.05;;;19.70;56.90;;;;;;5030977;28;20037;-72
2023/01/09 03:21:25;;;;;;;14.75;8.32;;;19.70;56.90;;;;;;5031801;28;20086;-72
2023/01/09 03:24:01;;;;;;;14.00;8.25;;;19.70;56.90;;;;;;5032120;28;20568;-72
2023/01/09 03:26:30;;;;;;;16.83;8.10;;;19.70;56.90;;;;;;5031062;28;20101;-72
2023/01/09 03:28:57;;;;;;;11.77;7.90;;;19.70;56.90;;;;;;5031615;28;20025;-72
2023/01/09 03:31:23;;;;;;;14.40;8.10;;;19.70;56.80;;;;;;5031952;28;20029;-71
2023/01/09 03:33:49;;;;;;;13.85;7.82;;;19.70;56.80;;;;;;5031992;28;20120;-72
2023/01/09 03:36:17;;;;;;;14.85;8.57;;;19.70;56.80;;;;;;5032287;28;20072;-73
2023/01/09 03:38:43;;;;;;;12.38;7.57;;;19.70;56.80;;;;;;5030480;28;20480;-72
2023/01/09 03:41:09;;;;;;;12.38;7.57;;;19.70;56.80;;;;;;5030625;28;20029;-72
2023/01/09 03:43:34;;;;;;;12.48;7.43;;;19.70;56.90;;;;;;5030347;28;20021;-72
2023/01/09 03:46:01;;;;;;;14.40;7.80;;;19.70;56.70;;;;;;5031831;28;20178;-72
2023/01/09 03:48:27;;;;;;;14.63;7.53;;;19.70;56.90;;;;;;5014304;28;20040;-72
2023/01/09 03:50:54;;;;;;;12.10;7.57;;;19.70;56.80;;;;;;5014321;28;20504;-72
2023/01/09 03:53:22;;;;;;;12.60;7.35;;;19.70;56.90;;;;;;5030431;28;20116;-71
2023/01/09 03:55:50;;;;;;;12.45;7.60;;;19.70;56.80;;;;;;5030452;28;20036;-72
2023/01/09 03:58:17;;;;;;;11.68;7.03;;;19.70;56.80;;;;;;5031707;28;20468;-72
2023/01/09 04:00:49;;;;;;;12.73;7.32;;;19.70;56.80;;;;;;5031429;28;20034;-73
2023/01/09 04:03:18;;;;;;;11.07;6.93;;;19.70;56.90;;;;;;5030316;28;20075;-72
2023/01/09 04:05:45;;;;;;;13.18;7.47;;;19.70;56.90;;;;;;5031538;28;20029;-72
2023/01/09 04:08:11;;;;;;;11.63;7.35;;;19.70;56.90;;;;;;5031605;28;20057;-72
2023/01/09 04:10:37;;;;;;;12.45;7.53;;;19.70;57.50;;;;;;5031447;28;20400;-72
2023/01/09 04:13:02;;;;;;;11.35;7.03;;;19.70;56.90;;;;;;5031229;28;20026;-72
2023/01/09 04:15:28;;;;;;;11.82;7.15;;;19.70;56.90;;;;;;5031448;28;20095;-73
2023/01/09 04:17:54;;;;;;;11.98;7.38;;;19.70;56.90;;;;;;5030139;28;20030;-72
2023/01/09 04:20:20;;;;;;;11.95;7.10;;;19.70;56.80;;;;;;5031148;28;20029;-72
2023/01/09 04:22:45;;;;;;;11.18;7.45;;;19.70;56.70;;;;;;5031085;28;20416;-72
2023/01/09 04:25:11;;;;;;;11.50;7.13;;;19.70;56.80;;;;;;5031369;28;20083;-72
2023/01/09 04:27:37;;;;;;;13.05;7.72;;;19.70;56.80;;;;;;5031337;28;20030;-72
2023/01/09 04:30:04;;;;;;;12.15;7.22;;;19.70;56.80;;;;;;5031115;28;20087;-72
2023/01/09 04:32:30;;;;;;;11.93;7.57;;;19.70;56.70;;;;;;5031021;28;20025;-72
2023/01/09 04:34:56;;;;;;;13.18;7.15;;;19.70;56.80;;;;;;5029995;28;20044;-72
2023/01/09 04:37:23;;;;;;;11.40;6.82;;;19.70;56.80;;;;;;5030179;28;20026;-72
2023/01/09 04:39:50;;;;;;;12.18;7.32;;;19.70;56.80;;;;;;5030750;28;20316;-72
2023/01/09 04:42:16;;;;;;;13.23;7.78;;;19.70;56.80;;;;;;5034959;28;20572;-72
2023/01/09 04:44:42;;;;;;;12.48;7.40;;;19.70;56.80;;;;;;5035115;28;20053;-72
2023/01/09 04:47:07;;;;;;;10.50;6.93;;;19.70;56.70;;;;;;5035147;28;20025;-72
2023/01/09 04:49:33;;;;;;;9.90;6.45;;;19.70;56.80;;;;;;5035025;28;20029;-72
2023/01/09 04:51:59;;;;;;;13.82;7.32;;;19.70;56.80;;;;;;5033478;28;20507;-72
2023/01/09 04:54:26;;;;;;;12.07;7.40;;;19.70;56.80;;;;;;5033766;28;20057;-72
2023/01/09 04:56:52;;;;;;;11.32;7.30;;;19.70;56.80;;;;;;5033750;28;20060;-72
2023/01/09 04:59:18;;;;;;;10.63;6.85;;;19.70;56.80;;;;;;5035114;28;20029;-72
2023/01/09 05:01:44;;;;;;;11.95;7.30;;;19.70;56.70;;;;;;5034506;28;20388;-72
2023/01/09 05:04:10;;;;;;;10.57;6.65;;;19.70;56.90;;;;;;5033580;28;20481;-72
2023/01/09 05:06:36;;;;;;;11.23;6.75;;;19.70;56.90;;;;;;5028599;28;20025;-72
2023/01/09 05:09:02;;;;;;;12.45;7.20;;;19.70;56.80;;;;;;5031308;28;20030;-72
2023/01/09 05:11:28;;;;;;;10.00;6.75;;;19.70;56.90;;;;;;5033242;28;20025;-72
2023/01/09 05:13:54;;;;;;;12.93;6.78;;;19.70;56.80;;;;;;5034559;28;20493;-72
2023/01/09 05:16:20;;;;;;;11.35;7.20;;;19.70;56.80;;;;;;5034208;28;20040;-72
2023/01/09 05:18:46;;;;;;;10.68;6.55;;;19.70;56.80;;;;;;5034551;28;20022;-72
2023/01/09 05:21:12;;;;;;;10.40;7.15;;;19.70;56.80;;;;;;5034214;28;20037;-72
2023/01/09 05:23:38;;;;;;;10.73;7.10;;;19.70;56.80;;;;;;5034195;28;20052;-72
2023/01/09 05:26:04;;;;;;;9.85;6.60;;;19.70;56.80;;;;;;5034250;28;20076;-72
2023/01/09 05:28:31;;;;;;;10.63;6.93;;;19.70;56.80;;;;;;5034400;28;20029;-72
2023/01/09 05:30:57;;;;;;;10.85;6.78;;;19.70;56.80;;;;;;5034132;28;20105;-72
2023/01/09 05:33:23;;;;;;;12.77;7.15;;;19.70;56.70;;;;;;5034151;28;20113;-72
2023/01/09 05:35:48;;;;;;;11.55;6.43;;;19.70;56.80;;;;;;5034184;28;20025;-72
2023/01/09 05:38:14;;;;;;;11.38;7.15;;;19.70;56.80;;;;;;5034336;28;20029;-72
2023/01/09 05:40:40;;;;;;;10.60;6.90;;;19.70;56.80;;;;;;5033937;28;20096;-72
2023/01/09 05:43:06;;;;;;;11.32;7.07;;;19.70;56.80;;;;;;5033901;28;20100;-72
2023/01/09 05:45:32;;;;;;;12.50;7.55;;;19.70;56.90;;;;;;5033973;28;20029;-72
2023/01/09 05:47:57;;;;;;;10.63;6.60;;;19.70;56.90;;;;;;5033705;28;20021;-72
2023/01/09 05:50:23;;;;;;;11.43;6.40;;;19.70;56.90;;;;;;5033420;28;20389;-72
2023/01/09 05:52:49;;;;;;;11.07;6.53;;;19.70;56.90;;;;;;5033657;28;20053;-72
2023/01/09 05:55:15;;;;;;;11.43;6.93;;;19.70;56.90;;;;;;5033840;28;20025;-72
2023/01/09 05:57:41;;;;;;;11.52;7.20;;;19.70;56.90;;;;;;5034002;28;20437;-72
2023/01/09 06:00:07;;;;;;;11.98;7.03;;;19.70;56.90;;;;;;5033699;28;20041;-72
2023/01/09 06:02:33;;;;;;;11.32;6.35;;;19.70;57.00;;;;;;5033387;28;20481;-72
2023/01/09 06:04:59;;;;;;;11.63;6.78;;;19.70;56.90;;;;;;5033700;28;20028;-72
2023/01/09 06:07:24;;;;;;;9.77;6.72;;;19.70;56.80;;;;;;5032664;28;20021;-72
2023/01/09 06:09:50;;;;;;;11.32;7.18;;;19.70;56.90;;;;;;5033421;28;20033;-72
2023/01/09 06:12:16;;;;;;;10.90;6.57;;;19.70;57.30;;;;;;5033046;28;20068;-71
2023/01/09 06:14:42;;;;;;;9.38;6.57;;;19.70;56.70;;;;;;5032226;28;20403;-71
2023/01/09 06:17:08;;;;;;;9.95;6.45;;;19.80;56.80;;;;;;5033401;28;20025;-73
2023/01/09 06:19:33;;;;;;;11.40;6.40;;;19.80;56.80;;;;;;5033586;28;20033;-72
2023/01/09 06:21:59;;;;;;;10.80;6.97;;;19.80;56.80;;;;;;5032833;28;20029;-72
2023/01/09 06:24:25;;;;;;;11.18;7.00;;;19.80;56.70;;;;;;5032140;28;20531;-72
2023/01/09 06:26:51;;;;;;;9.85;6.32;;;19.80;56.70;;;;;;5032199;28;20108;-73
2023/01/09 06:29:16;;;;;;;10.73;6.18;;;19.70;56.70;;;;;;5033284;28;20390;-72
2023/01/09 06:31:42;;;;;;;11.63;6.95;;;19.80;56.70;;;;;;5031518;28;20263;-72
2023/01/09 06:34:08;;;;;;;9.88;6.43;;;19.80;56.70;;;;;;5015414;28;20037;-72
2023/01/09 06:36:34;;;;;;;12.10;7.28;;;19.80;56.70;;;;;;5032974;28;20025;-72
2023/01/09 06:38:59;;;;;;;13.02;6.50;;;19.80;56.80;;;;;;5031835;28;20036;-72
2023/01/09 06:41:25;;;;;;;9.98;6.53;;;19.80;56.70;;;;;;5031266;28;20436;-72
2023/01/09 06:43:51;;;;;;;10.35;6.35;;;19.80;56.80;;;;;;5032891;28;20029;-71
2023/01/09 06:46:17;;;;;;;11.35;6.20;;;19.80;56.70;;;;;;5032841;28;20385;-71
2023/01/09 06:48:42;;;;;;;12.75;7.35;;;19.80;56.80;;;;;;5015370;28;20129;-72
2023/01/09 06:51:08;;;;;;;12.23;6.75;;;19.80;56.80;;;;;;5032757;28;20033;-71
2023/01/09 06:53:34;;;;;;;11.70;7.30;;;19.80;56.80;;;;;;5032434;28;20040;-72
2023/01/09 06:56:01;;;;;;;10.23;6.32;;;19.80;56.80;;;;;;5032662;28;20049;-72
2023/01/09 06:58:27;;;;;;;11.68;7.05;;;19.80;56.80;;;;;;5032621;28;20025;-72
2023/01/09 07:00:55;;;;;;;11.77;6.78;;;19.70;56.80;;;;;;5032684;28;20116;-71
2023/01/09 07:03:21;;;;;;;11.02;6.57;;;19.80;56.90;;;;;;5031423;28;20466;-72
2023/01/09 07:05:48;;;;;;;10.35;6.43;;;19.80;56.90;;;;;;5031438;28;20029;-72
2023/01/09 07:08:14;;;;;;;12.80;7.47;;;19.80;57.00;;;;;;5032442;28;20057;-72
2023/01/09 07:10:43;;;;;;;12.55;6.82;;;19.80;57.00;;;;;;5031291;28;20037;-72
2023/01/09 07:13:10;;;;;;;11.55;7.05;;;19.80;57.00;;;;;;5014331;28;20088;-71
2023/01/09 07:15:36;;;;;;;14.38;7.47;;;19.80;56.90;;;;;;5031133;28;20135;-72
2023/01/09 07:18:02;;;;;;;11.57;7.13;;;19.80;56.90;;;;;;5031091;28;20070;-72
2023/01/09 07:20:28;;;;;;;11.88;7.30;;;19.80;56.80;;;;;;5031260;28;20034;-72
2023/01/09 07:22:54;;;;;;;10.65;6.80;;;19.80;56.70;;;;;;5031740;28;20100;-72
2023/01/09 07:25:20;;;;;;;12.65;7.63;;;19.80;56.80;;;;;;5014755;28;20105;-72
2023/01/09 07:27:46;;;;;;;12.23;7.10;;;19.80;56.80;;;;;;5030386;28;20094;-72
2023/01/09 07:30:12;;;;;;;11.70;7.47;;;19.80;56.80;;;;;;5032059;28;20029;-72
2023/01/09 07:32:39;;;;;;;13.30;7.68;;;19.80;56.80;;;;;;5030437;28;20029;-72
2023/01/09 07:35:09;;;;;;;12.32;7.53;;;19.80;56.80;;;;;;5030747;28;20495;-72
2023/01/09 07:37:35;;;;;;;;;;;19.80;56.80;;;;;;5031026;28;20405;-72
2023/01/09 07:40:02;;;;;;;11.93;6.95;;;19.80;56.80;;;;;;5030657;28;19913;-72
2023/01/09 07:42:28;;;;;;;10.60;7.20;;;19.80;56.90;;;;;;5014161;28;20080;-72
2023/01/09 07:44:53;;;;;;;13.30;6.85;;;19.80;56.80;;;;;;5030838;28;20033;-71
2023/01/09 07:47:19;;;;;;;13.60;7.18;;;19.80;56.90;;;;;;5014021;28;20045;-72
2023/01/09 07:49:45;;;;;;;12.82;7.32;;;19.70;56.90;;;;;;5014153;28;20030;-72
2023/01/09 07:52:11;;;;;;;14.82;7.88;;;19.70;56.90;;;;;;5031318;28;20033;-72
2023/01/09 07:54:36;;;;;;;11.98;7.30;;;19.70;56.90;;;;;;5030570;28;20608;-72
2023/01/09 07:57:02;;;;;;;11.32;7.15;;;19.80;57.00;;;;;;5031622;28;20250;-71
2023/01/09 07:59:28;;;;;;;12.10;7.28;;;19.80;57.00;;;;;;5031527;28;20092;-72
2023/01/09 08:01:54;;;;;;;13.10;7.57;;;19.70;56.90;;;;;;5031358;28;20025;-72
2023/01/09 08:04:21;;;;;;;13.60;7.57;;;19.70;56.90;;;;;;5030375;28;20445;-72
2023/01/09 08:06:46;;;;;;;13.70;7.85;;;19.80;56.90;;;;;;5030322;28;20063;-72
2023/01/09 08:09:13;;;;;;;16.10;8.85;;;19.80;57.00;;;;;;5014231;28;20029;-72
2023/01/09 08:11:40;;;;;;;14.93;8.70;;;19.80;56.90;;;;;;5013583;28;20037;-72
2023/01/09 08:14:06;;;;;;;13.38;8.43;;;19.80;56.90;;;;;;5030043;28;20393;-72
2023/01/09 08:16:31;;;;;;;15.05;8.55;;;19.80;56.90;;;;;;5030345;28;20033;-72
2023/01/09 08:18:57;;;;;;;19.60;9.20;;;19.80;56.80;;;;;;5029996;28;20029;-72
2023/01/09 08:21:23;;;;;;;15.95;8.63;;;19.80;56.90;;;;;;5029571;28;20033;-72
2023/01/09 08:23:49;;;;;;;15.10;8.70;;;19.80;56.90;;;;;;5030151;28;20025;-72
2023/01/09 08:26:15;;;;;;;15.60;9.00;;;19.80;57.40;;;;;;5013811;28;20087;-72
2023/01/09 08:28:40;;;;;;;14.23;8.50;;;19.80;56.90;;;;;;5031163;28;20508;-72
2023/01/09 08:31:06;;;;;;;15.18;9.00;;;19.80;56.90;;;;;;5030039;28;20044;-72
2023/01/09 08:33:32;;;;;;;13.77;8.38;;;19.80;56.90;;;;;;5030905;28;20030;-72
2023/01/09 08:35:58;;;;;;;14.80;8.93;;;19.80;56.90;;;;;;5031182;28;20033;-72
2023/01/09 08:38:24;;;;;;;14.02;8.77;;;19.80;56.90;;;;;;5029766;28;20033;-72
2023/01/09 08:40:49;;;;;;;14.40;8.82;;;19.70;56.90;;;;;;5031316;28;20113;-72
2023/01/09 08:48:26;;;;;;;13.95;8.55;;;19.80;57.10;;;;;;5030968;28;20087;-72
2023/01/09 08:50:53;;;;;;;13.52;8.23;;;19.80;57.10;;;;;;5029883;28;20029;-72
2023/01/09 08:53:19;;;;;;;16.70;8.93;;;19.80;57.10;;;;;;5030792;28;20141;-72
2023/01/09 08:55:45;;;;;;;14.93;8.00;;;19.70;57.00;;;;;;5013612;28;20037;-72
2023/01/09 08:58:10;;;;;;;13.75;8.00;;;19.70;57.00;;;;;;5030796;28;20034;-72
2023/01/09 09:00:37;;;;;;;13.18;8.05;;;19.70;57.00;;;;;;5030034;28;20029;-72
2023/01/09 09:03:02;;;;;;;12.98;8.00;;;19.70;57.00;;;;;;5030959;28;20104;-72
2023/01/09 09:05:30;;;;;;;13.68;8.35;;;19.70;57.00;;;;;;5029724;28;20105;-72
2023/01/09 09:07:57;;;;;;;14.98;7.95;;;19.70;57.00;;;;;;5030561;28;20032;-72
2023/01/09 09:10:25;;;;;;;15.07;8.55;;;19.80;57.00;;;;;;5029835;28;20604;-72
2023/01/09 09:12:53;;;;;;;12.88;7.40;;;19.80;57.00;;;;;;5030616;28;20391;-72
2023/01/09 09:15:22;;;;;;;11.93;7.18;;;19.70;56.90;;;;;;5029648;28;20025;-72
2023/01/09 09:17:53;;;;;;;13.20;7.95;;;19.70;56.80;;;;;;5030956;28;20033;-72
2023/01/09 09:20:20;;;;;;;13.05;8.13;;;19.80;57.00;;;;;;5030800;28;20405;-71
2023/01/09 09:22:49;;;;;;;;;;;19.70;56.90;;;;;;5029832;28;20028;-72
2023/01/09 09:25:16;;;;;;;12.15;7.68;;;19.70;56.90;;;;;;5030710;28;19909;-72
2023/01/09 09:27:42;;;;;;;12.85;7.32;;;19.70;56.90;;;;;;5034440;28;20030;-72
2023/01/09 09:30:09;;;;;;;13.77;8.43;;;19.80;57.10;;;;;;5034245;28;20389;-72
2023/01/09 09:32:36;;;;;;;12.50;7.82;;;19.70;57.00;;;;;;5032963;28;20444;-71
2023/01/09 09:35:02;;;;;;;16.95;7.95;;;19.70;57.00;;;;;;5016785;28;20060;-75
2023/01/09 09:37:28;;;;;;;19.83;9.65;;;19.70;56.90;;;;;;5033387;28;20037;-75
2023/01/09 09:39:54;;;;;;;18.95;10.23;;;19.50;54.20;;;;;;5032960;28;20034;-75
2023/01/09 09:45:50;;;;;;;12.88;8.80;;;19.10;52.50;;;;;;5016627;28;20029;-75
2023/01/09 09:48:33;;;;;;;18.50;9.27;;;19.00;52.00;;;;;;5032866;28;20022;-75
2023/01/09 09:51:22;;;;;;;13.88;8.80;;;19.00;52.30;;;;;;5034341;28;20047;-75
2023/01/09 09:54:12;;;;;;;14.40;8.63;;;19.00;51.50;;;;;;5032657;28;20075;-75
2023/01/09 09:56:49;;;;;;;20.20;9.55;;;18.90;50.90;;;;;;5032790;28;20406;-75
2023/01/09 09:59:21;;;;;;;14.68;9.52;;;18.90;51.90;;;;;;4999750;28;20033;-73
2023/01/09 10:01:59;;;;;;;27.67;14.55;;;18.70;50.40;;;;;;5032410;28;20095;-74
2023/01/09 10:04:27;;;;;;;31.25;20.27;;;18.50;50.70;;;;;;5033680;28;20028;-72
2023/01/09 10:07:08;;;;;;;33.95;19.63;;;18.40;51.20;;;;;;5033884;28;20087;-73
2023/01/09 10:09:56;;;;;;;44.70;19.60;;;18.70;52.10;;;;;;5033489;28;20033;-72
2023/01/09 10:12:47;;;;;;;30.65;17.55;;;18.80;52.10;;;;;;5032081;28;20037;-74
2023/01/09 10:15:54;;;;;;;26.95;13.43;;;19.10;53.00;;;;;;5032234;28;20037;-71
2023/01/09 10:18:49;;;;;;;18.17;11.23;;;19.10;52.10;;;;;;5033052;28;20489;-70
2023/01/09 10:21:21;;;;;;;22.10;10.82;;;19.00;51.40;;;;;;5033176;28;20477;-73
2023/01/09 10:23:56;;;;;;;20.67;10.55;;;19.10;52.40;;;;;;5033177;28;20104;-72
2023/01/09 10:26:47;;;;;;;30.98;10.73;;;19.10;52.30;;;;;;5033044;28;20059;-72
2023/01/09 10:30:04;;;;;;;24.67;10.80;;;19.20;53.60;;;;;;5012563;28;20102;-71
2023/01/09 10:32:52;;;;;;;23.38;10.20;;;19.30;53.80;;;;;;4979306;28;20524;-73
2023/01/09 10:35:53;;;;;;;38.20;10.00;;;19.40;54.30;;;;;;5011971;28;20030;-73
2023/01/09 10:38:25;;;;;;;32.97;10.75;;;19.50;55.30;;;;;;5012293;28;20548;-72
2023/01/09 10:41:12;;;;;;;29.27;9.20;;;19.50;54.90;;;;;;5011268;28;20324;-73
2023/01/09 10:44:04;;;;;;;19.77;9.65;;;19.50;55.00;;;;;;5013179;28;20029;-73
2023/01/09 10:46:54;;;;;;;25.30;9.45;;;19.50;55.50;;;;;;5013053;28;20544;-72
2023/01/09 10:49:21;;;;;;;;;;;19.50;55.80;;;;;;5003483;28;20042;-73
2023/01/09 10:51:57;;;;;;;26.10;9.02;;;19.50;55.90;;;;;;5011155;28;19910;-73
2023/01/09 10:54:23;;;;;;;26.77;9.70;;;19.50;56.10;;;;;;5012562;28;20030;-73
2023/01/09 10:57:03;;;;;;;22.42;9.00;;;19.60;55.90;;;;;;5011351;28;20026;-73
2023/01/09 10:59:29;;;;;;;28.67;9.80;;;19.60;56.20;;;;;;5012549;28;20132;-73
2023/01/09 11:01:56;;;;;;;21.52;8.75;;;19.60;56.40;;;;;;4995005;28;20032;-72
2023/01/09 11:04:36;;;;;;;16.60;8.45;;;19.60;56.70;;;;;;5011976;28;20038;-73
2023/01/09 11:07:04;;;;;;;;;;;19.60;56.80;;;;;;5011906;28;20469;-73
2023/01/09 11:10:10;;;;;;;21.48;9.02;;;19.60;56.90;;;;;;5012908;28;19917;-72
2023/01/09 11:12:37;;;;;;;22.23;9.02;;;19.60;57.10;;;;;;5011278;28;20478;-73
2023/01/09 11:15:15;;;;;;;29.55;8.93;;;19.60;57.30;;;;;;5012550;28;20132;-73
2023/01/09 11:17:51;;;;;;;20.00;8.27;;;19.60;57.40;;;;;;5011642;28;20032;-72
2023/01/09 11:20:22;;;;;;;19.58;9.55;;;19.60;57.50;;;;;;5012438;28;20060;-72
2023/01/09 11:22:56;;;;;;;23.42;8.82;;;19.60;57.50;;;;;;5012328;28;20026;-73
2023/01/09 11:25:27;;;;;;;15.50;8.45;;;19.60;57.50;;;;;;5012575;28;20022;-72
2023/01/09 11:28:04;;;;;;;19.27;8.57;;;19.60;57.50;;;;;;5011334;28;20041;-73
2023/01/09 11:30:35;;;;;;;16.20;8.57;;;19.60;57.70;;;;;;4994892;28;20121;-73
2023/01/09 11:33:14;;;;;;;20.15;8.77;;;19.60;57.80;;;;;;4994764;28;20034;-73
2023/01/09 11:35:53;;;;;;;21.95;8.30;;;19.60;57.80;;;;;;5012224;28;20096;-73
2023/01/09 11:38:18;;;;;;;17.17;7.80;;;19.60;58.00;;;;;;5012336;28;20034;-73
2023/01/09 11:40:57;;;;;;;19.77;8.30;;;19.60;58.10;;;;;;5010957;28;20069;-73
2023/01/09 11:43:32;;;;;;;17.77;8.00;;;19.60;59.00;;;;;;5015685;28;20033;-73
2023/01/09 11:46:01;;;;;;;21.20;8.50;;;19.60;59.10;;;;;;5034927;28;20433;-72
2023/01/09 11:48:34;;;;;;;17.63;8.25;;;19.70;61.10;;;;;;5029956;28;20029;-73
2023/01/09 11:51:03;;;;;;;24.98;8.38;;;19.70;60.60;;;;;;5031706;28;20033;-73
2023/01/09 11:53:47;;;;;;;17.25;8.50;;;19.80;61.60;;;;;;5028249;28;20037;-72
2023/01/09 11:56:15;;;;;;;23.02;8.32;;;19.70;61.60;;;;;;5035868;28;20567;-73
2023/01/09 11:58:42;;;;;;;30.98;7.82;;;19.70;62.50;;;;;;5027400;28;20053;-74
2023/01/09 12:01:38;;;;;;;21.05;8.13;;;19.70;63.30;;;;;;5025146;28;20028;-72
2023/01/09 12:04:23;;;;;;;18.88;8.57;;;19.80;63.30;;;;;;5028344;28;20034;-72
2023/01/09 12:07:28;;;;;;;19.00;9.32;;;19.80;64.20;;;;;;5028027;28;20482;-73
2023/01/09 12:10:42;;;;;;;23.45;8.35;;;19.90;64.60;;;;;;5009472;28;20069;-73
2023/01/09 12:13:34;;;;;;;22.55;8.27;;;19.90;64.80;;;;;;4958377;28;20227;-73
2023/01/09 12:16:51;;;;;;;21.95;8.38;;;20.00;64.10;;;;;;5027620;28;20382;-73
2023/01/09 12:19:36;;;;;;;19.85;7.88;;;19.90;63.60;;;;;;5009396;28;20041;-73
2023/01/09 12:22:37;;;;;;;19.35;7.60;;;19.90;63.00;;;;;;5043335;23;20068;-72
2023/01/09 12:25:22;;;;;;;19.08;7.35;;;19.90;62.90;;;;;;5050884;28;20056;-72
2023/01/09 12:27:55;;;;;;;20.63;8.75;;;19.90;62.80;;;;;;5048606;28;20155;-73
2023/01/09 12:30:46;;;;;;;18.55;7.75;;;20.00;62.70;;;;;;5047983;28;20545;-72
2023/01/09 12:33:24;;;;;;;18.58;7.28;;;19.90;62.80;;;;;;5048624;28;20041;-73
2023/01/09 12:36:08;;;;;;;16.00;7.70;;;19.90;63.00;;;;;;5029222;28;20045;-73
2023/01/09 12:38:45;;;;;;;17.73;7.72;;;19.90;63.10;;;;;;5046356;28;20132;-73
2023/01/09 12:41:51;;;;;;;21.80;6.97;;;19.90;63.20;;;;;;5049081;28;20029;-73
2023/01/09 12:44:47;;;;;;;17.17;6.85;;;19.90;63.30;;;;;;4988059;28;20404;-73
2023/01/09 12:47:31;;;;;;;15.75;6.63;;;19.90;63.40;;;;;;5040094;28;20048;-73
2023/01/09 12:50:13;;;;;;;16.40;6.57;;;19.90;63.50;;;;;;5030787;28;20025;-73
2023/01/09 12:52:52;;;;;;;14.40;6.80;;;19.90;63.50;;;;;;5048267;28;20033;-71
2023/01/09 12:55:26;;;;;;;14.90;6.53;;;19.90;63.50;;;;;;5048877;28;20029;-71
2023/01/09 12:57:56;;;;;;;16.75;7.00;;;19.90;63.80;;;;;;5048704;28;20037;-72
2023/01/09 13:00:39;;;;;;;12.10;6.10;;;19.90;63.70;;;;;;5048874;28;20029;-71
2023/01/09 13:03:34;;;;;;;15.82;6.93;;;19.90;63.90;;;;;;5052922;28;20021;-72
2023/01/09 13:06:01;;;;;;;12.75;6.00;;;19.90;64.00;;;;;;5032503;28;20025;-72
2023/01/09 13:08:40;;;;;;;16.95;6.85;;;20.00;64.20;;;;;;5044266;28;20029;-72
2023/01/09 13:11:22;;;;;;;13.55;6.30;;;20.00;64.50;;;;;;5050518;28;20108;-72
2023/01/09 13:13:57;;;;;;;22.08;7.25;;;20.00;64.30;;;;;;5048305;28;20025;-72